createdAt,value
2022-11-19T00:01:22.180Z,4.18
2022-11-19T00:03:52.699Z,4.25
2022-11-19T00:06:23.259Z,3.83
2022-11-19T00:08:50.580Z,3.47
2022-11-19T00:11:40.080Z,3.78
2022-11-19T00:14:08.607Z,5.15
2022-11-19T00:16:35.812Z,4.63
2022-11-19T00:19:02.960Z,5.38
2022-11-19T00:21:29.909Z,5.97
2022-11-19T00:23:57.439Z,7.22
2022-11-19T00:26:25.061Z,9.20
2022-11-19T00:28:52.119Z,7.97
2022-11-19T00:31:19.278Z,7.93
2022-11-19T00:33:46.732Z,9.82
2022-11-19T00:36:15.393Z,8.02
2022-11-19T00:38:42.980Z,9.00
2022-11-19T00:41:10.579Z,9.70
2022-11-19T00:43:50.357Z,8.20
2022-11-19T00:46:19.991Z,9.23
2022-11-19T00:48:48.615Z,9.32
2022-11-19T00:51:17.155Z,8.50
2022-11-19T00:53:44.315Z,8.25
2022-11-19T00:56:13.890Z,8.13
2022-11-19T00:58:41.543Z,7.47
2022-11-19T01:01:09.196Z,6.97
2022-11-19T01:03:37.359Z,5.93
2022-11-19T01:06:04.434Z,6.65
2022-11-19T01:08:31.591Z,6.70
2022-11-19T01:11:12.140Z,7.18
2022-11-19T01:13:39.453Z,7.00
2022-11-19T01:16:26.179Z,7.32
2022-11-19T01:18:53.568Z,7.07
2022-11-19T01:21:24.184Z,7.18
2022-11-19T01:23:51.836Z,6.50
2022-11-19T01:26:19.477Z,7.05
2022-11-19T01:28:46.930Z,7.45
2022-11-19T01:31:19.652Z,7.70
2022-11-19T01:33:46.888Z,8.02
2022-11-19T01:36:17.130Z,7.88
2022-11-19T01:38:50.492Z,7.82
2022-11-19T01:41:29.860Z,7.65
2022-11-19T01:44:02.009Z,7.90
2022-11-19T01:46:31.523Z,8.63
2022-11-19T01:49:12.276Z,8.05
2022-11-19T01:51:45.775Z,9.10
2022-11-19T01:54:21.713Z,7.93
2022-11-19T01:59:18.415Z,8.57
2022-11-19T02:01:46.732Z,9.05
2022-11-19T02:04:17.549Z,9.18
2022-11-19T02:06:45.667Z,8.20
2022-11-19T02:09:12.747Z,7.68
2022-11-19T02:11:59.363Z,7.90
2022-11-19T02:14:38.476Z,8.43
2022-11-19T02:17:36.696Z,7.40
2022-11-19T02:20:41.173Z,7.13
2022-11-19T02:23:52.239Z,7.50
2022-11-19T02:26:47.064Z,7.43
2022-11-19T02:29:29.232Z,7.90
2022-11-19T02:32:02.084Z,7.07
2022-11-19T02:34:58.599Z,6.93
2022-11-19T02:37:41.435Z,7.07
2022-11-19T02:40:56.046Z,7.57
2022-11-19T02:43:38.925Z,6.70
2022-11-19T02:46:13.421Z,6.70
2022-11-19T02:48:48.564Z,6.50
2022-11-19T02:51:18.180Z,7.22
2022-11-19T02:53:48.192Z,6.80
2022-11-19T02:56:36.026Z,6.72
2022-11-19T02:59:22.364Z,6.22
2022-11-19T03:02:09.253Z,5.95
2022-11-19T03:04:36.344Z,6.38
2022-11-19T03:07:15.854Z,6.25
2022-11-19T03:09:49.218Z,6.32
2022-11-19T03:12:37.525Z,5.65
2022-11-19T03:15:36.369Z,6.07
2022-11-19T03:18:09.529Z,5.10
2022-11-19T03:20:38.925Z,5.22
2022-11-19T03:23:16.342Z,5.07
2022-11-19T03:25:52.166Z,5.82
2022-11-19T03:30:53.192Z,5.93
2022-11-19T03:33:28.334Z,6.55
2022-11-19T03:36:00.915Z,5.55
2022-11-19T03:38:32.804Z,5.65
2022-11-19T03:41:02.369Z,6.50
2022-11-19T03:43:33.472Z,5.53
2022-11-19T03:46:02.677Z,5.38
2022-11-19T03:48:31.109Z,5.38
2022-11-19T03:51:00.281Z,4.70
2022-11-19T03:53:28.641Z,4.20
2022-11-19T03:56:02.650Z,4.60
2022-11-19T03:58:30.186Z,4.10
2022-11-19T04:00:57.147Z,4.47
2022-11-19T04:03:24.218Z,5.25
2022-11-19T04:05:51.173Z,5.60
2022-11-19T04:08:18.184Z,4.75
2022-11-19T04:10:45.250Z,4.30
2022-11-19T04:13:12.177Z,4.82
2022-11-19T04:15:39.188Z,4.47
2022-11-19T04:18:06.316Z,3.70
2022-11-19T04:20:33.422Z,4.40
2022-11-19T04:23:00.483Z,5.38
2022-11-19T04:25:27.386Z,4.25
2022-11-19T04:27:54.461Z,4.68
2022-11-19T04:30:21.502Z,4.43
2022-11-19T04:32:48.461Z,3.83
2022-11-19T04:35:18.153Z,3.50
2022-11-19T04:37:45.242Z,3.70
2022-11-19T04:40:12.949Z,3.65
2022-11-19T04:42:39.991Z,4.18
2022-11-19T04:45:07.644Z,4.07
2022-11-19T04:47:34.592Z,3.92
2022-11-19T04:50:01.570Z,3.75
2022-11-19T04:52:28.500Z,3.53
2022-11-19T04:54:55.473Z,4.35
2022-11-19T04:57:22.447Z,3.20
2022-11-19T04:59:49.362Z,3.67
2022-11-19T05:02:16.398Z,3.97
2022-11-19T05:04:43.365Z,3.72
2022-11-19T05:07:10.471Z,3.53
2022-11-19T05:09:37.665Z,4.57
2022-11-19T05:12:05.118Z,4.22
2022-11-19T05:14:32.117Z,4.38
2022-11-19T05:16:59.021Z,5.00
2022-11-19T05:19:26.033Z,3.67
2022-11-19T05:21:53.084Z,4.65
2022-11-19T05:24:20.015Z,3.80
2022-11-19T05:26:47.132Z,4.45
2022-11-19T05:29:14.127Z,4.43
2022-11-19T05:31:41.204Z,4.32
2022-11-19T05:34:08.175Z,4.88
2022-11-19T05:36:35.101Z,4.43
2022-11-19T05:39:02.043Z,3.83
2022-11-19T05:41:29.004Z,3.80
2022-11-19T05:43:56.665Z,4.32
2022-11-19T05:46:23.626Z,4.07
2022-11-19T05:48:50.659Z,3.97
2022-11-19T05:51:17.828Z,3.83
2022-11-19T05:53:44.987Z,3.60
2022-11-19T05:56:12.296Z,3.83
2022-11-19T05:58:39.312Z,3.65
2022-11-19T06:01:06.688Z,3.85
2022-11-19T06:03:33.663Z,3.72
2022-11-19T06:06:00.649Z,3.45
2022-11-19T06:08:27.692Z,4.18
2022-11-19T06:10:54.686Z,3.63
2022-11-19T06:13:21.643Z,3.40
2022-11-19T06:15:48.695Z,3.85
2022-11-19T06:18:15.703Z,3.80
2022-11-19T06:20:42.692Z,3.72
2022-11-19T06:23:09.704Z,3.88
2022-11-19T06:25:36.729Z,4.03
2022-11-19T06:28:03.747Z,3.80
2022-11-19T06:30:30.776Z,4.45
2022-11-19T06:32:57.636Z,3.70
2022-11-19T06:35:27.233Z,4.13
2022-11-19T06:37:54.183Z,4.22
2022-11-19T06:40:21.159Z,4.07
2022-11-19T06:42:50.979Z,3.65
2022-11-19T06:45:18.345Z,3.78
2022-11-19T06:47:48.334Z,4.05
2022-11-19T06:50:15.496Z,3.95
2022-11-19T06:52:42.504Z,3.35
2022-11-19T06:55:10.009Z,3.90
2022-11-19T06:57:37.065Z,3.78
2022-11-19T07:00:05.171Z,4.13
2022-11-19T07:02:32.234Z,3.85
2022-11-19T07:04:59.147Z,3.90
2022-11-19T07:07:26.105Z,4.95
2022-11-19T07:09:53.113Z,4.18
2022-11-19T07:12:20.043Z,4.57
2022-11-19T07:14:47.176Z,4.55
2022-11-19T07:17:14.360Z,4.32
2022-11-19T07:19:41.329Z,5.03
2022-11-19T07:22:08.444Z,4.95
2022-11-19T07:24:35.810Z,4.68
2022-11-19T07:27:02.764Z,5.32
2022-11-19T07:29:29.712Z,5.78
2022-11-19T07:31:56.678Z,5.55
2022-11-19T07:34:23.849Z,5.50
2022-11-19T07:36:50.986Z,6.03
2022-11-19T07:39:18.577Z,5.45
2022-11-19T07:42:04.534Z,5.85
2022-11-19T07:44:33.584Z,5.20
2022-11-19T07:47:00.583Z,5.30
2022-11-19T07:49:27.746Z,5.65
2022-11-19T07:51:55.032Z,6.28
2022-11-19T07:54:22.077Z,5.55
2022-11-19T07:56:49.545Z,5.95
2022-11-19T07:59:16.998Z,6.00
2022-11-19T08:01:44.548Z,6.03
2022-11-19T08:04:11.595Z,5.75
2022-11-19T08:06:38.764Z,4.97
2022-11-19T08:09:06.277Z,6.20
2022-11-19T08:11:33.263Z,5.85
2022-11-19T08:14:01.954Z,6.22
2022-11-19T08:16:48.202Z,6.90
2022-11-19T08:21:47.630Z,6.72
2022-11-19T08:24:18.657Z,7.75
2022-11-19T08:26:46.857Z,7.22
2022-11-19T08:29:16.728Z,8.50
2022-11-19T08:31:46.854Z,8.18
2022-11-19T08:34:15.335Z,9.07
2022-11-19T08:36:42.381Z,8.65
2022-11-19T08:39:09.843Z,8.68
2022-11-19T08:41:55.215Z,9.90
2022-11-19T08:44:22.727Z,11.53
2022-11-19T08:46:50.595Z,10.80
2022-11-19T08:49:17.901Z,12.07
2022-11-19T08:51:45.865Z,12.50
2022-11-19T08:54:13.321Z,12.68
2022-11-19T08:56:40.563Z,13.38
2022-11-19T08:59:07.543Z,14.88
2022-11-19T09:01:35.014Z,14.32
2022-11-19T09:04:02.039Z,13.93
2022-11-19T09:06:29.096Z,16.40
2022-11-19T09:08:56.125Z,16.40
2022-11-19T09:11:23.463Z,17.48
2022-11-19T09:13:50.592Z,18.60
2022-11-19T09:16:17.754Z,19.15
2022-11-19T09:18:44.803Z,17.65
2022-11-19T09:21:12.135Z,18.75
2022-11-19T09:23:41.393Z,19.13
2022-11-19T09:26:18.882Z,17.58
2022-11-19T09:28:46.480Z,17.83
2022-11-19T09:31:16.361Z,17.77
2022-11-19T09:33:46.602Z,18.77
2022-11-19T09:36:14.092Z,17.30
2022-11-19T09:38:41.709Z,19.52
2022-11-19T09:41:17.618Z,18.30
2022-11-19T09:44:08.385Z,18.75
2022-11-19T09:46:53.391Z,19.70
2022-11-19T09:49:39.863Z,20.67
2022-11-19T09:52:15.037Z,20.77
2022-11-19T09:54:49.870Z,20.75
2022-11-19T09:57:26.809Z,20.60
2022-11-19T09:59:56.923Z,21.75
2022-11-19T10:02:23.972Z,20.52
2022-11-19T10:04:52.096Z,21.60
2022-11-19T10:07:43.714Z,21.02
2022-11-19T10:10:48.068Z,20.73
2022-11-19T10:13:49.029Z,20.10
2022-11-19T10:16:32.761Z,19.65
2022-11-19T10:19:38.666Z,20.17
2022-11-19T10:22:27.378Z,20.73
2022-11-19T10:25:15.852Z,21.90
2022-11-19T10:27:53.550Z,23.58
2022-11-19T10:30:24.505Z,19.67
2022-11-19T10:33:00.416Z,21.17
2022-11-19T10:35:47.519Z,20.27
2022-11-19T10:38:29.738Z,19.02
2022-11-19T10:41:10.775Z,19.50
2022-11-19T10:43:46.171Z,18.65
2022-11-19T10:46:17.515Z,16.30
2022-11-19T10:48:49.189Z,18.20
2022-11-19T10:51:27.672Z,16.55
2022-11-19T10:53:55.905Z,17.88
2022-11-19T10:56:30.025Z,14.65
2022-11-19T10:59:01.434Z,14.52
2022-11-19T11:01:38.681Z,16.58
2022-11-19T11:04:22.717Z,16.52
2022-11-19T11:06:59.947Z,16.45
2022-11-19T11:09:37.263Z,16.90
2022-11-19T11:12:36.267Z,16.63
2022-11-19T11:15:23.097Z,17.00
2022-11-19T11:18:03.098Z,17.13
2022-11-19T11:20:30.975Z,13.80
2022-11-19T11:23:15.139Z,12.27
2022-11-19T11:26:08.402Z,13.57
2022-11-19T11:28:36.458Z,11.95
2022-11-19T11:31:09.668Z,12.60
2022-11-19T11:33:42.517Z,11.25
2022-11-19T11:36:11.186Z,11.57
2022-11-19T11:38:49.708Z,12.13
2022-11-19T11:44:28.035Z,12.52
2022-11-19T11:46:58.289Z,13.15
2022-11-19T11:49:28.268Z,12.30
2022-11-19T11:52:22.572Z,11.32
2022-11-19T11:55:01.431Z,10.77
2022-11-19T11:57:34.479Z,9.98
2022-11-19T12:00:03.736Z,11.98
2022-11-19T12:02:34.934Z,10.95
2022-11-19T12:05:07.623Z,11.50
2022-11-19T12:08:07.256Z,12.15
2022-11-19T12:11:10.081Z,12.50
2022-11-19T12:13:42.940Z,12.65
2022-11-19T12:16:53.234Z,12.18
2022-11-19T12:19:54.516Z,11.35
2022-11-19T12:22:43.010Z,11.55
2022-11-19T12:25:30.172Z,10.80
2022-11-19T12:28:06.442Z,10.60
2022-11-19T12:31:02.351Z,10.38
2022-11-19T12:33:44.765Z,10.68
2022-11-19T12:36:43.653Z,10.57
2022-11-19T12:39:47.173Z,9.70
2022-11-19T12:42:31.595Z,10.65
2022-11-19T12:45:01.422Z,12.15
2022-11-19T12:47:59.460Z,11.55
2022-11-19T12:50:32.756Z,9.75
2022-11-19T12:53:05.900Z,10.57
2022-11-19T12:55:35.936Z,10.32
2022-11-19T12:58:14.667Z,9.95
2022-11-19T13:00:51.367Z,10.77
2022-11-19T13:03:42.619Z,10.15
2022-11-19T13:06:18.331Z,10.02
2022-11-19T13:11:27.239Z,11.02
2022-11-19T13:16:35.048Z,11.00
2022-11-19T13:19:13.203Z,10.75
2022-11-19T13:21:50.364Z,11.18
2022-11-19T13:24:17.329Z,12.00
2022-11-19T13:26:44.325Z,11.00
2022-11-19T13:29:22.690Z,12.05
2022-11-19T13:31:58.821Z,11.30
2022-11-19T13:34:40.220Z,10.75
2022-11-19T13:37:19.105Z,11.18
2022-11-19T13:39:52.245Z,10.65
2022-11-19T13:42:39.332Z,11.23
2022-11-19T13:45:13.353Z,11.73
2022-11-19T13:48:05.244Z,11.43
2022-11-19T13:50:39.675Z,12.00
2022-11-19T13:53:33.518Z,11.35
2022-11-19T13:56:01.159Z,10.73
2022-11-19T13:58:37.860Z,11.80
2022-11-19T14:01:08.055Z,11.63
2022-11-19T14:04:32.444Z,10.68
2022-11-19T14:07:07.940Z,11.10
2022-11-19T14:12:26.716Z,12.63
2022-11-19T14:15:21.539Z,13.18
2022-11-19T14:18:16.218Z,12.73
2022-11-19T14:21:04.340Z,12.25
2022-11-19T14:24:16.439Z,13.27
2022-11-19T14:26:43.394Z,13.45
2022-11-19T14:29:33.036Z,13.15
2022-11-19T14:32:03.235Z,13.45
2022-11-19T14:34:55.063Z,14.68
2022-11-19T14:37:26.955Z,14.43
2022-11-19T14:40:16.949Z,13.63
2022-11-19T14:43:20.742Z,13.60
2022-11-19T14:46:03.318Z,13.30
2022-11-19T14:48:39.427Z,12.77
2022-11-19T14:51:10.843Z,13.05
2022-11-19T14:53:59.318Z,14.65
2022-11-19T14:56:27.133Z,13.85
2022-11-19T14:59:15.239Z,13.57
2022-11-19T15:01:54.576Z,12.93
2022-11-19T15:04:23.976Z,14.13
2022-11-19T15:06:52.245Z,14.75
2022-11-19T15:09:51.495Z,13.93
2022-11-19T15:12:20.503Z,14.25
2022-11-19T15:15:06.196Z,15.23
2022-11-19T15:17:35.306Z,14.60
2022-11-19T15:20:05.026Z,13.95
2022-11-19T15:22:50.285Z,14.20
2022-11-19T15:25:37.117Z,16.33
2022-11-19T15:28:44.108Z,15.27
2022-11-19T15:31:45.825Z,14.95
2022-11-19T15:35:03.763Z,16.00
2022-11-19T15:37:48.753Z,16.40
2022-11-19T15:40:26.086Z,17.63
2022-11-19T15:43:34.168Z,17.13
2022-11-19T15:46:11.610Z,18.25
2022-11-19T15:49:10.621Z,17.95
2022-11-19T15:52:16.108Z,18.45
2022-11-19T15:54:44.551Z,18.27
2022-11-19T15:57:17.540Z,18.35
2022-11-19T15:59:55.790Z,19.25
2022-11-19T16:02:38.333Z,18.45
2022-11-19T16:05:06.953Z,21.13
2022-11-19T16:07:34.516Z,18.65
2022-11-19T16:10:03.213Z,19.83
2022-11-19T16:12:48.661Z,19.38
2022-11-19T16:15:41.472Z,20.15
2022-11-19T16:18:17.004Z,20.90
2022-11-19T16:20:48.019Z,20.92
2022-11-19T16:23:21.826Z,20.95
2022-11-19T16:25:49.292Z,22.10
2022-11-19T16:28:25.673Z,20.67
2022-11-19T16:30:55.208Z,20.50
2022-11-19T16:33:27.921Z,22.05
2022-11-19T16:36:14.616Z,21.45
2022-11-19T16:38:46.509Z,21.52
2022-11-19T16:41:33.549Z,21.02
2022-11-19T16:44:04.851Z,21.83
2022-11-19T16:46:33.953Z,21.85
2022-11-19T16:49:03.687Z,22.60
2022-11-19T16:51:33.773Z,22.23
2022-11-19T16:54:01.990Z,20.52
2022-11-19T16:56:47.707Z,21.90
2022-11-19T16:59:24.117Z,21.77
2022-11-19T17:01:58.449Z,21.23
2022-11-19T17:04:30.298Z,22.88
2022-11-19T17:06:58.718Z,20.13
2022-11-19T17:09:33.608Z,20.67
2022-11-19T17:12:18.888Z,21.58
2022-11-19T17:15:00.583Z,21.90
2022-11-19T17:17:39.970Z,22.13
2022-11-19T17:20:30.468Z,21.75
2022-11-19T17:22:58.449Z,22.08
2022-11-19T17:25:26.319Z,22.33
2022-11-19T17:27:56.252Z,21.63
2022-11-19T17:30:31.055Z,23.42
2022-11-19T17:33:00.853Z,22.37
2022-11-19T17:35:38.223Z,21.23
2022-11-19T17:38:21.970Z,21.15
2022-11-19T17:41:00.549Z,22.95
2022-11-19T17:43:53.426Z,22.50
2022-11-19T17:46:22.130Z,22.90
2022-11-19T17:48:50.302Z,23.38
2022-11-19T17:51:23.666Z,24.50
2022-11-19T17:53:52.322Z,25.00
2022-11-19T17:56:20.580Z,22.65
2022-11-19T17:58:47.684Z,23.00
2022-11-19T18:01:15.784Z,22.63
2022-11-19T18:03:43.220Z,24.92
2022-11-19T18:06:15.429Z,23.88
2022-11-19T18:08:43.143Z,24.08
2022-11-19T18:11:15.902Z,24.10
2022-11-19T18:13:44.091Z,26.65
2022-11-19T18:16:17.357Z,23.90
2022-11-19T18:18:45.105Z,24.23
2022-11-19T18:21:17.341Z,23.77
2022-11-19T18:23:45.584Z,24.52
2022-11-19T18:26:15.868Z,24.83
2022-11-19T18:28:46.276Z,25.48
2022-11-19T18:31:17.552Z,24.95
2022-11-19T18:33:47.793Z,26.23
2022-11-19T18:36:15.411Z,25.05
2022-11-19T18:38:42.809Z,25.17
2022-11-19T18:41:14.353Z,25.08
2022-11-19T18:44:00.062Z,29.20
2022-11-19T18:46:27.124Z,28.38
2022-11-19T18:48:54.141Z,26.15
2022-11-19T18:51:30.644Z,26.10
2022-11-19T18:53:57.709Z,26.00
2022-11-19T18:56:24.737Z,25.88
2022-11-19T18:58:52.399Z,26.27
2022-11-19T19:01:19.821Z,27.13
2022-11-19T19:03:47.495Z,25.05
2022-11-19T19:06:15.692Z,25.52
2022-11-19T19:08:42.878Z,26.45
2022-11-19T19:11:29.926Z,25.00
2022-11-19T19:13:57.064Z,26.52
2022-11-19T19:16:24.056Z,75.70
2022-11-19T19:18:51.075Z,28.23
2022-11-19T19:21:20.814Z,26.70
2022-11-19T19:23:48.248Z,25.05
2022-11-19T19:26:17.615Z,25.65
2022-11-19T19:28:51.750Z,23.70
2022-11-19T19:31:20.528Z,23.90
2022-11-19T19:33:48.291Z,22.83
2022-11-19T19:36:17.207Z,23.23
2022-11-19T19:38:44.412Z,23.73
2022-11-19T19:41:17.253Z,22.48
2022-11-19T19:43:44.616Z,24.50
2022-11-19T19:46:15.915Z,23.98
2022-11-19T19:48:48.227Z,22.58
2022-11-19T19:51:17.189Z,23.38
2022-11-19T19:53:44.331Z,22.13
2022-11-19T19:56:15.556Z,22.65
2022-11-19T19:58:44.428Z,22.25
2022-11-19T20:01:17.721Z,21.33
2022-11-19T20:03:45.005Z,20.92
2022-11-19T20:06:14.712Z,20.63
2022-11-19T20:08:42.872Z,20.35
2022-11-19T20:11:15.021Z,19.88
2022-11-19T20:13:43.072Z,22.63
2022-11-19T20:16:18.424Z,22.38
2022-11-19T20:18:47.021Z,19.80
2022-11-19T20:21:19.821Z,19.80
2022-11-19T20:23:47.253Z,19.98
2022-11-19T20:26:21.265Z,20.58
2022-11-19T20:28:53.340Z,17.58
2022-11-19T20:31:21.001Z,19.77
2022-11-19T20:33:55.061Z,19.10
2022-11-19T20:36:24.798Z,19.50
2022-11-19T20:38:52.693Z,19.27
2022-11-19T20:41:40.963Z,23.20
2022-11-19T20:44:21.956Z,22.73
2022-11-19T20:46:54.683Z,23.42
2022-11-19T20:49:25.134Z,22.77
2022-11-19T20:51:53.551Z,23.30
2022-11-19T20:54:22.171Z,23.15
2022-11-19T20:56:51.518Z,25.45
2022-11-19T20:59:19.242Z,23.27
2022-11-19T21:01:50.891Z,23.65
2022-11-19T21:04:19.278Z,23.42
2022-11-19T21:06:46.754Z,24.15
2022-11-19T21:09:15.737Z,24.23
2022-11-19T21:11:43.483Z,25.27
2022-11-19T21:14:10.491Z,25.13
2022-11-19T21:16:37.674Z,25.77
2022-11-19T21:19:04.811Z,23.65
2022-11-19T21:21:31.831Z,21.85
2022-11-19T21:23:58.776Z,21.10
2022-11-19T21:26:27.754Z,21.98
2022-11-19T21:28:57.043Z,19.98
2022-11-19T21:31:42.158Z,20.77
2022-11-19T21:34:14.668Z,20.87
2022-11-19T21:36:43.749Z,19.95
2022-11-19T21:39:12.030Z,19.50
2022-11-19T21:41:39.097Z,18.95
2022-11-19T21:44:06.683Z,19.05
2022-11-19T21:46:34.463Z,17.92
2022-11-19T21:49:02.503Z,19.17
2022-11-19T21:51:29.759Z,17.63
2022-11-19T21:53:57.797Z,18.92
2022-11-19T21:56:26.782Z,17.05
2022-11-19T21:58:53.760Z,17.92
2022-11-19T22:01:21.014Z,17.38
2022-11-19T22:03:48.126Z,17.63
2022-11-19T22:06:15.180Z,18.70
2022-11-19T22:08:43.360Z,18.27
2022-11-19T22:11:30.334Z,17.75
2022-11-19T22:14:08.074Z,19.20
2022-11-19T22:16:37.963Z,21.33
2022-11-19T22:19:05.943Z,21.65
2022-11-19T22:21:33.401Z,20.88
2022-11-19T22:24:00.470Z,19.48
2022-11-19T22:26:27.944Z,21.17
2022-11-19T22:28:55.423Z,19.75
2022-11-19T22:31:24.238Z,19.42
2022-11-19T22:33:52.199Z,19.52
2022-11-19T22:36:20.257Z,17.88
2022-11-19T22:38:47.402Z,18.38
2022-11-19T22:41:17.520Z,19.08
2022-11-19T22:43:44.853Z,18.02
2022-11-19T22:46:13.258Z,18.42
2022-11-19T22:48:40.850Z,17.80
2022-11-19T22:51:17.166Z,18.67
2022-11-19T22:53:45.098Z,20.60
2022-11-19T22:56:15.505Z,26.13
2022-11-19T22:58:42.981Z,20.90
2022-11-19T23:01:22.251Z,29.67
2022-11-19T23:03:49.776Z,24.67
2022-11-19T23:06:17.234Z,20.13
2022-11-19T23:08:45.059Z,19.17
2022-11-19T23:11:14.656Z,19.60
2022-11-19T23:13:43.946Z,19.52
2022-11-19T23:16:17.493Z,21.13
2022-11-19T23:18:49.620Z,19.42
2022-11-19T23:21:28.381Z,20.48
2022-11-19T23:23:56.342Z,19.08
2022-11-19T23:26:25.400Z,20.73
2022-11-19T23:28:53.339Z,19.90
2022-11-19T23:31:32.152Z,19.48
2022-11-19T23:33:59.726Z,20.05
2022-11-19T23:36:31.872Z,19.13
2022-11-19T23:38:59.893Z,19.50
2022-11-19T23:41:27.533Z,21.73
2022-11-19T23:43:55.343Z,20.38
2022-11-19T23:46:25.064Z,20.08
2022-11-19T23:48:54.855Z,21.05
2022-11-19T23:51:29.973Z,20.80
2022-11-19T23:53:57.621Z,19.70
2022-11-19T23:56:26.318Z,19.42
2022-11-19T23:58:53.354Z,20.85
